Carnival Liberty — HPYE — position and weather

sailwx.info

Track history (hours):
 
Tides and Currents Weather Stations Pressure Air Temp Water Temp Dewpoint Dewpoint Depression Visibility Wind Speed Wind Dir Waves Ship Positions

Carnival Liberty

Last reported at 2015-Apr-18 22:26 UTC. Time now 2015-Apr-18 23:30 UTC.
Position N 18°03' W 063°24'.

Type: Ship. MMSI: 371083000.

Date/timePositionNaut miles runAvg speedWind from/ knotsBaromVisibWave heightAir tempDewpointWater temp
2015-Apr-18 22:26N 18°03' W 063°24'1919.0
2015-Apr-18 21:26N 18°00' W 063°05'2 1.7
2015-Apr-18 20:19N 18°01' W 063°03'0 0.0
2015-Apr-18 19:19N 18°01' W 063°03'0 0.0
2015-Apr-18 18:27N 18°01' W 063°03'0 0.0
2015-Apr-18 17:21N 18°01' W 063°03'0 0.0
2015-Apr-18 16:14N 18°01' W 063°03'0 0.0
2015-Apr-18 14:32N 18°01' W 063°03'0 0.0
2015-Apr-18 13:23N 18°01' W 063°03'0 0.0
2015-Apr-18 12:13N 18°01' W 063°03'0 0.0
2015-Apr-18 11:27N 18°01' W 063°03'0 0.0
2015-Apr-18 10:31N 18°01' W 063°03'6 6.1
2015-Apr-18 09:29N 17°56' W 063°07'1010.2
2015-Apr-18 08:33N 17°46' W 063°06'1010.2
2015-Apr-18 07:33N 17°36' W 063°06'7915.8
2015-Apr-18 02:33N 16°28' W 062°24'114 5.1
2015-Apr-17 04:09N 14°37' W 061°58'6 9.3
2015-Apr-17 03:32N 14°33' W 061°54'10 9.7
2015-Apr-17 02:33N 14°28' W 061°46'10 9.5
2015-Apr-17 01:33N 14°23' W 061°37'9 9.2
2015-Apr-17 00:33N 14°18' W 061°29'9 9.5
2015-Apr-16 23:34N 14°13' W 061°21'10 9.7
2015-Apr-16 22:33N 14°08' W 061°12'13 9.7
2015-Apr-16 21:14N 14°01' W 061°01'1 1.8
2015-Apr-16 20:33N 14°01' W 060°60'0 0.0
2015-Apr-16 19:33N 14°01' W 060°60'0 0.0
2015-Apr-16 18:32N 14°01' W 060°60'0 0.0
2015-Apr-16 17:32N 14°01' W 060°60'0 0.0
2015-Apr-16 16:31N 14°01' W 060°60'0 0.0
2015-Apr-16 15:31N 14°01' W 060°60'0 0.0
2015-Apr-16 14:30N 14°01' W 060°60'0 0.0
2015-Apr-16 13:30N 14°01' W 060°60'0 0.0
2015-Apr-16 12:30N 14°01' W 060°60'0 0.0
2015-Apr-16 11:33N 14°01' W 060°60'5 4.9
2015-Apr-16 10:33N 14°02' W 061°05'9 9.0
2015-Apr-16 09:33N 13°58' W 061°13'12 8.1
2015-Apr-16 08:06N 13°47' W 061°18'42 1.4
2015-Apr-15 01:29N 14°12' W 060°43'8 8.4
2015-Apr-15 00:33N 14°13' W 060°51'10 9.6
2015-Apr-14 23:33N 14°14' W 061°01'10 9.6
2015-Apr-14 22:33N 14°15' W 061°11'9 9.2
2015-Apr-14 21:33N 14°20' W 061°19'8 8.2
2015-Apr-14 20:33N 14°27' W 061°23'10 9.7
2015-Apr-14 19:33N 14°35' W 061°29'10 9.8
2015-Apr-14 18:33N 14°44' W 061°34'1010.1
2015-Apr-14 17:33N 14°52' W 061°40'26714.7
2015-Apr-13 23:27N 18°08' W 064°49'12 0.9
2015-Apr-13 10:19N 18°16' W 064°57'6 0.2
2015-Apr-12 03:23N 18°11' W 064°59'8019.2
2015-Apr-11 23:13N 18°02' W 063°36'1519.6
2015-Apr-11 22:27N 18°01' W 063°20'1616.8
2015-Apr-11 21:30N 18°00' W 063°03'1 0.5
2015-Apr-11 20:26N 18°01' W 063°03'0 0.0
2015-Apr-11 18:25N 18°01' W 063°03'0 0.0
2015-Apr-11 17:15N 18°01' W 063°03'0 0.0
2015-Apr-11 16:12N 18°01' W 063°03'0 0.0
2015-Apr-11 15:20N 18°01' W 063°03'0 0.0
2015-Apr-11 13:27N 18°01' W 063°03'0 0.0
2015-Apr-11 10:30N 18°01' W 063°03'6 6.2
2015-Apr-11 09:32N 17°56' W 063°07'1210.9
2015-Apr-11 08:28N 17°44' W 063°06'1110.7
2015-Apr-11 07:24N 17°33' W 063°06'188 6.9
2015-Apr-10 04:15N 14°36' W 061°58'8 9.8
2015-Apr-10 03:27N 14°32' W 061°52'910.1
2015-Apr-10 02:33N 14°27' W 061°44'10 9.8
2015-Apr-10 01:34N 14°22' W 061°35'10 9.9
2015-Apr-10 00:33N 14°17' W 061°26'10 9.6
2015-Apr-09 23:33N 14°11' W 061°18'9 9.0
2015-Apr-09 22:33N 14°07' W 061°10'12 8.6
2015-Apr-09 21:13N 14°01' W 060°60'0 0.1
2015-Apr-09 20:31N 14°01' W 060°60'0 0.0
2015-Apr-09 19:33N 14°01' W 060°60'0 0.0
2015-Apr-09 18:33N 14°01' W 060°60'0 0.0
2015-Apr-09 17:32N 14°01' W 060°60'0 0.0
2015-Apr-09 16:32N 14°01' W 060°60'0 0.0
2015-Apr-09 15:31N 14°01' W 060°60'0 0.0
2015-Apr-09 14:31N 14°01' W 060°60'0 0.0
2015-Apr-09 13:30N 14°01' W 060°60'0 0.0
2015-Apr-09 12:30N 14°01' W 060°60'0 0.0
2015-Apr-09 11:33N 14°01' W 060°60'5 5.0
2015-Apr-09 10:34N 14°02' W 061°05'9 9.3
2015-Apr-09 09:33N 13°57' W 061°13'  
Track history (hours):
 
Tides and Currents Weather Stations Pressure Air Temp Water Temp Dewpoint Dewpoint Depression Visibility Wind Speed Wind Dir Waves Ship Positions

Carnival Liberty

Last reported at 2015-Apr-18 22:26 UTC. Time now 2015-Apr-18 23:30 UTC.
Position N 18°03' W 063°24'.

Type: Ship. MMSI: 371083000.

Date/timePositionNaut miles runAvg speedWind from/ knotsBaromVisibWave heightAir tempDewpointWater temp
2015-Apr-18 22:26N 18°03' W 063°24'1919.0
2015-Apr-18 21:26N 18°00' W 063°05'2 1.7
2015-Apr-18 20:19N 18°01' W 063°03'0 0.0
2015-Apr-18 19:19N 18°01' W 063°03'0 0.0
2015-Apr-18 18:27N 18°01' W 063°03'0 0.0
2015-Apr-18 17:21N 18°01' W 063°03'0 0.0
2015-Apr-18 16:14N 18°01' W 063°03'0 0.0
2015-Apr-18 14:32N 18°01' W 063°03'0 0.0
2015-Apr-18 13:23N 18°01' W 063°03'0 0.0
2015-Apr-18 12:13N 18°01' W 063°03'0 0.0
2015-Apr-18 11:27N 18°01' W 063°03'0 0.0
2015-Apr-18 10:31N 18°01' W 063°03'6 6.1
2015-Apr-18 09:29N 17°56' W 063°07'1010.2
2015-Apr-18 08:33N 17°46' W 063°06'1010.2
2015-Apr-18 07:33N 17°36' W 063°06'7915.8
2015-Apr-18 02:33N 16°28' W 062°24'114 5.1
2015-Apr-17 04:09N 14°37' W 061°58'6 9.3
2015-Apr-17 03:32N 14°33' W 061°54'10 9.7
2015-Apr-17 02:33N 14°28' W 061°46'10 9.5
2015-Apr-17 01:33N 14°23' W 061°37'9 9.2
2015-Apr-17 00:33N 14°18' W 061°29'9 9.5
2015-Apr-16 23:34N 14°13' W 061°21'10 9.7
2015-Apr-16 22:33N 14°08' W 061°12'13 9.7
2015-Apr-16 21:14N 14°01' W 061°01'1 1.8
2015-Apr-16 20:33N 14°01' W 060°60'0 0.0
2015-Apr-16 19:33N 14°01' W 060°60'0 0.0
2015-Apr-16 18:32N 14°01' W 060°60'0 0.0
2015-Apr-16 17:32N 14°01' W 060°60'0 0.0
2015-Apr-16 16:31N 14°01' W 060°60'0 0.0
2015-Apr-16 15:31N 14°01' W 060°60'0 0.0
2015-Apr-16 14:30N 14°01' W 060°60'0 0.0
2015-Apr-16 13:30N 14°01' W 060°60'0 0.0
2015-Apr-16 12:30N 14°01' W 060°60'0 0.0
2015-Apr-16 11:33N 14°01' W 060°60'5 4.9
2015-Apr-16 10:33N 14°02' W 061°05'9 9.0
2015-Apr-16 09:33N 13°58' W 061°13'12 8.1
2015-Apr-16 08:06N 13°47' W 061°18'42 1.4
2015-Apr-15 01:29N 14°12' W 060°43'8 8.4
2015-Apr-15 00:33N 14°13' W 060°51'10 9.6
2015-Apr-14 23:33N 14°14' W 061°01'10 9.6
2015-Apr-14 22:33N 14°15' W 061°11'9 9.2
2015-Apr-14 21:33N 14°20' W 061°19'8 8.2
2015-Apr-14 20:33N 14°27' W 061°23'10 9.7
2015-Apr-14 19:33N 14°35' W 061°29'10 9.8
2015-Apr-14 18:33N 14°44' W 061°34'1010.1
2015-Apr-14 17:33N 14°52' W 061°40'26714.7
2015-Apr-13 23:27N 18°08' W 064°49'12 0.9
2015-Apr-13 10:19N 18°16' W 064°57'6 0.2
2015-Apr-12 03:23N 18°11' W 064°59'8019.2
2015-Apr-11 23:13N 18°02' W 063°36'1519.6
2015-Apr-11 22:27N 18°01' W 063°20'1616.8
2015-Apr-11 21:30N 18°00' W 063°03'1 0.5
2015-Apr-11 20:26N 18°01' W 063°03'0 0.0
2015-Apr-11 18:25N 18°01' W 063°03'0 0.0
2015-Apr-11 17:15N 18°01' W 063°03'0 0.0
2015-Apr-11 16:12N 18°01' W 063°03'0 0.0
2015-Apr-11 15:20N 18°01' W 063°03'0 0.0
2015-Apr-11 13:27N 18°01' W 063°03'0 0.0
2015-Apr-11 10:30N 18°01' W 063°03'6 6.2
2015-Apr-11 09:32N 17°56' W 063°07'1210.9
2015-Apr-11 08:28N 17°44' W 063°06'1110.7
2015-Apr-11 07:24N 17°33' W 063°06'188 6.9
2015-Apr-10 04:15N 14°36' W 061°58'8 9.8
2015-Apr-10 03:27N 14°32' W 061°52'910.1
2015-Apr-10 02:33N 14°27' W 061°44'10 9.8
2015-Apr-10 01:34N 14°22' W 061°35'10 9.9
2015-Apr-10 00:33N 14°17' W 061°26'10 9.6
2015-Apr-09 23:33N 14°11' W 061°18'9 9.0
2015-Apr-09 22:33N 14°07' W 061°10'12 8.6
2015-Apr-09 21:13N 14°01' W 060°60'0 0.1
2015-Apr-09 20:31N 14°01' W 060°60'0 0.0
2015-Apr-09 19:33N 14°01' W 060°60'0 0.0
2015-Apr-09 18:33N 14°01' W 060°60'0 0.0
2015-Apr-09 17:32N 14°01' W 060°60'0 0.0
2015-Apr-09 16:32N 14°01' W 060°60'0 0.0
2015-Apr-09 15:31N 14°01' W 060°60'0 0.0
2015-Apr-09 14:31N 14°01' W 060°60'0 0.0
2015-Apr-09 13:30N 14°01' W 060°60'0 0.0
2015-Apr-09 12:30N 14°01' W 060°60'0 0.0
2015-Apr-09 11:33N 14°01' W 060°60'5 5.0
2015-Apr-09 10:34N 14°02' W 061°05'9 9.3
2015-Apr-09 09:33N 13°57' W 061°13'  

Dump ship's entire track history